Time;durP1;ratioP1;P1;durP2;ratioP2;P2;SDS_P1;SDS_P2;PMS_P1;PMS_P2;Temp;Humidity;BMP_temperature;BMP_pressure;BME280_temperature;BME280_humidity;BME280_pressure;Samples;Min_cycle;Max_cycle;Signal;HPM_P1;HPM_P2
2022/06/26 00:01:15;;;;;;;20.45;15.23;;;20.10;90.80;;;;;;5057068;28;20442;-77
2022/06/26 00:03:40;;;;;;;18.65;13.15;;;20.10;90.60;;;;;;5056731;28;20133;-78
2022/06/26 00:06:06;;;;;;;15.88;14.18;;;20.10;90.30;;;;;;5059000;28;20031;-77
2022/06/26 00:08:32;;;;;;;15.82;14.18;;;20.10;90.40;;;;;;5054773;28;20099;-78
2022/06/26 00:10:57;;;;;;;16.60;13.60;;;20.10;90.30;;;;;;5067190;28;20033;-78
2022/06/26 00:13:23;;;;;;;16.50;12.88;;;20.10;90.50;;;;;;5071488;28;20021;-76
2022/06/26 00:15:50;;;;;;;15.52;12.70;;;20.10;90.50;;;;;;5061770;28;20016;-78
2022/06/26 00:18:16;;;;;;;15.65;12.45;;;20.20;90.50;;;;;;5069802;28;20352;-78
2022/06/26 00:20:41;;;;;;;15.43;13.77;;;20.20;90.60;;;;;;5058307;28;20039;-78
2022/06/26 00:23:07;;;;;;;16.38;14.43;;;20.20;90.70;;;;;;5070671;28;20032;-78
2022/06/26 00:25:33;;;;;;;17.23;13.85;;;20.20;90.80;;;;;;5040009;28;20040;-78
2022/06/26 00:28:00;;;;;;;20.95;15.50;;;20.20;90.50;;;;;;5034662;28;20733;-78
2022/06/26 00:30:26;;;;;;;17.65;15.73;;;20.20;90.60;;;;;;5066212;28;20587;-78
2022/06/26 00:32:53;;;;;;;17.65;15.20;;;20.20;90.70;;;;;;5055066;28;20056;-78
2022/06/26 00:35:19;;;;;;;17.85;15.95;;;20.20;90.50;;;;;;5065515;28;20029;-77
2022/06/26 00:37:45;;;;;;;18.50;15.18;;;20.20;90.60;;;;;;5052282;28;20019;-76
2022/06/26 00:40:10;;;;;;;15.93;14.20;;;20.20;90.70;;;;;;5047943;28;20067;-77
2022/06/26 00:42:36;;;;;;;17.73;15.38;;;20.20;90.90;;;;;;5070765;28;20473;-78
2022/06/26 00:45:04;;;;;;;16.98;15.18;;;20.20;91.00;;;;;;5069842;28;20033;-77
2022/06/26 00:47:31;;;;;;;20.42;15.70;;;20.30;91.20;;;;;;5071398;28;20077;-78
2022/06/26 00:49:57;;;;;;;17.90;15.23;;;20.20;91.20;;;;;;5072131;28;20017;-77
2022/06/26 00:52:23;;;;;;;16.60;14.38;;;20.20;91.10;;;;;;5064456;28;20036;-78
2022/06/26 00:54:53;;;;;;;17.50;14.65;;;20.20;91.00;;;;;;5044253;28;20024;-75
2022/06/26 00:57:20;;;;;;;17.80;15.88;;;20.20;91.10;;;;;;5048819;28;20032;-77
2022/06/26 00:59:47;;;;;;;16.95;15.15;;;20.20;91.10;;;;;;5069142;28;20017;-77
2022/06/26 01:02:13;;;;;;;18.48;16.33;;;20.20;91.20;;;;;;5054186;28;20033;-78
2022/06/26 01:04:39;;;;;;;19.17;15.75;;;20.20;91.10;;;;;;5035093;28;20105;-77
2022/06/26 01:07:05;;;;;;;18.25;15.00;;;20.30;91.20;;;;;;5061301;28;20048;-77
2022/06/26 01:09:32;;;;;;;16.48;14.88;;;20.30;91.30;;;;;;5071915;28;20020;-76
2022/06/26 01:11:59;;;;;;;19.60;16.05;;;20.30;91.50;;;;;;5062175;28;20034;-76
2022/06/26 01:14:25;;;;;;;21.05;16.63;;;20.30;91.50;;;;;;5052623;28;20028;-78
2022/06/26 01:16:52;;;;;;;22.90;16.33;;;20.30;91.60;;;;;;5064205;28;20024;-77
2022/06/26 01:19:19;;;;;;;19.35;17.30;;;20.30;91.60;;;;;;5052977;28;20056;-78
2022/06/26 01:21:46;;;;;;;20.05;17.08;;;20.30;91.60;;;;;;5052840;28;20443;-77
2022/06/26 01:24:13;;;;;;;18.77;16.80;;;20.30;91.50;;;;;;5059603;28;20056;-77
2022/06/26 01:26:40;;;;;;;20.92;18.40;;;20.30;91.50;;;;;;5059020;28;20033;-77
2022/06/26 01:29:06;;;;;;;21.33;18.73;;;20.30;91.60;;;;;;5071035;28;20020;-77
2022/06/26 01:31:36;;;;;;;22.88;18.52;;;20.30;91.50;;;;;;5066529;28;20017;-78
2022/06/26 01:34:07;;;;;;;23.80;18.38;;;20.20;91.50;;;;;;5062879;28;20142;-76
2022/06/26 01:36:32;;;;;;;20.45;17.30;;;20.20;91.50;;;;;;5065019;28;20020;-76
2022/06/26 01:38:58;;;;;;;21.85;19.52;;;20.20;91.70;;;;;;5048672;28;20043;-76
2022/06/26 01:41:24;;;;;;;22.00;19.70;;;20.20;91.70;;;;;;5052081;28;20069;-75
2022/06/26 01:43:50;;;;;;;22.73;20.23;;;20.10;91.80;;;;;;5057982;28;20740;-76
2022/06/26 01:46:16;;;;;;;21.45;19.02;;;20.10;92.00;;;;;;5057489;28;20100;-76
2022/06/26 01:48:42;;;;;;;21.60;19.27;;;20.10;92.10;;;;;;5057356;28;20048;-76
2022/06/26 01:51:08;;;;;;;21.15;19.05;;;20.00;92.10;;;;;;5070644;28;20024;-77
2022/06/26 01:53:34;;;;;;;22.90;19.67;;;20.00;92.10;;;;;;5059249;28;20027;-77
2022/06/26 01:56:00;;;;;;;21.42;18.42;;;20.00;92.10;;;;;;5072936;28;20040;-77
2022/06/26 01:58:26;;;;;;;22.83;20.48;;;19.90;92.10;;;;;;5059990;28;20028;-77
2022/06/26 02:00:53;;;;;;;23.33;20.67;;;19.90;92.20;;;;;;5072295;28;20475;-77
2022/06/26 02:03:20;;;;;;;22.50;20.13;;;19.90;92.20;;;;;;5059749;28;20033;-78
2022/06/26 02:05:46;;;;;;;23.05;20.55;;;19.90;92.20;;;;;;5073858;28;20031;-77
2022/06/26 02:08:12;;;;;;;24.08;21.63;;;19.90;92.10;;;;;;5063592;28;20029;-77
2022/06/26 02:13:37;;;;;;;20.45;18.35;;;19.80;92.20;;;;;;5062871;28;20032;-76
2022/06/26 02:16:11;;;;;;;24.42;21.83;;;19.80;92.20;;;;;;5073422;28;20016;-77
2022/06/26 02:18:39;;;;;;;24.25;21.73;;;19.80;92.10;;;;;;5058414;28;20028;-78
2022/06/26 02:21:07;;;;;;;24.40;21.83;;;19.80;92.50;;;;;;5073544;28;20020;-77
2022/06/26 02:23:33;;;;;;;24.65;21.15;;;19.70;92.30;;;;;;5064114;28;20025;-76
2022/06/26 02:25:58;;;;;;;23.92;21.52;;;19.70;92.30;;;;;;5064110;28;20404;-78
2022/06/26 02:28:24;;;;;;;22.75;20.45;;;19.70;92.30;;;;;;5070267;28;20017;-77
2022/06/26 02:30:51;;;;;;;23.40;20.90;;;19.70;92.20;;;;;;5060510;28;20082;-76
2022/06/26 02:33:16;;;;;;;21.98;19.73;;;19.70;92.20;;;;;;5043170;28;20028;-77
2022/06/26 02:35:43;;;;;;;21.65;19.40;;;19.70;92.30;;;;;;5062504;28;20089;-77
2022/06/26 02:38:08;;;;;;;21.85;19.63;;;19.60;92.20;;;;;;5055839;28;20389;-76
2022/06/26 02:40:34;;;;;;;22.05;18.20;;;19.60;92.20;;;;;;5065189;28;20072;-77
2022/06/26 02:43:00;;;;;;;19.85;17.83;;;19.60;92.30;;;;;;5055161;28;20052;-77
2022/06/26 02:45:26;;;;;;;23.02;19.00;;;19.50;92.30;;;;;;5063770;28;20024;-77
2022/06/26 02:47:51;;;;;;;20.77;18.58;;;19.50;92.50;;;;;;5041185;28;20029;-77
2022/06/26 02:50:17;;;;;;;19.00;16.98;;;19.50;92.50;;;;;;5076755;28;20088;-77
2022/06/26 02:52:43;;;;;;;14.25;12.43;;;19.40;92.40;;;;;;5083911;28;20398;-78
2022/06/26 02:55:10;;;;;;;16.95;15.15;;;19.30;92.30;;;;;;5078285;28;20112;-78
2022/06/26 02:57:36;;;;;;;19.08;16.25;;;19.30;92.50;;;;;;5084472;28;20036;-78
2022/06/26 03:00:03;;;;;;;15.85;14.20;;;19.20;92.50;;;;;;5076159;28;20749;-78
2022/06/26 03:02:28;;;;;;;18.77;16.67;;;19.20;92.60;;;;;;5055156;28;20381;-77
2022/06/26 03:04:54;;;;;;;18.73;16.90;;;19.10;93.00;;;;;;5054725;28;20032;-76
2022/06/26 03:07:21;;;;;;;17.30;15.13;;;19.20;92.80;;;;;;5073681;28;20032;-76
2022/06/26 03:09:47;;;;;;;18.25;16.33;;;19.20;93.00;;;;;;5075259;28;20025;-77
2022/06/26 03:12:16;;;;;;;18.38;15.50;;;19.20;92.80;;;;;;5070633;28;20024;-77
2022/06/26 03:14:42;;;;;;;20.02;16.83;;;19.10;92.70;;;;;;5070972;28;20021;-75
2022/06/26 03:17:08;;;;;;;19.67;17.67;;;19.20;92.70;;;;;;5050824;28;20036;-76
2022/06/26 03:19:33;;;;;;;18.45;16.30;;;19.10;92.80;;;;;;5040820;28;20017;-77
2022/06/26 03:22:00;;;;;;;20.20;17.92;;;19.10;92.80;;;;;;5068879;28;20335;-77
2022/06/26 03:24:25;;;;;;;19.60;17.50;;;19.10;92.90;;;;;;5060675;28;20031;-77
2022/06/26 03:26:51;;;;;;;21.75;19.10;;;19.10;92.90;;;;;;5073584;28;20060;-78
2022/06/26 03:29:17;;;;;;;21.48;17.42;;;19.00;92.90;;;;;;5061472;28;20048;-76
2022/06/26 03:31:43;;;;;;;21.95;19.52;;;19.00;93.00;;;;;;5055982;28;20032;-77
2022/06/26 03:34:08;;;;;;;23.05;20.50;;;18.90;93.00;;;;;;5081845;28;20024;-76
2022/06/26 03:36:34;;;;;;;22.27;19.98;;;18.90;93.00;;;;;;5067019;28;20043;-77
2022/06/26 03:39:06;;;;;;;23.45;21.02;;;18.90;93.10;;;;;;5069065;28;20808;-76
2022/06/26 03:41:31;;;;;;;27.40;22.33;;;18.90;93.20;;;;;;5065845;28;20090;-76
2022/06/26 03:43:57;;;;;;;24.63;21.27;;;18.90;93.00;;;;;;5064604;28;20446;-77
2022/06/26 03:46:23;;;;;;;24.65;21.25;;;18.90;93.00;;;;;;5060968;28;20060;-76
2022/06/26 03:48:54;;;;;;;24.85;21.73;;;18.90;93.00;;;;;;5066620;28;20028;-76
2022/06/26 03:51:21;;;;;;;24.35;21.75;;;18.90;93.00;;;;;;5076315;28;20483;-77
2022/06/26 03:53:47;;;;;;;25.30;20.90;;;18.90;93.00;;;;;;5063706;28;20020;-77
2022/06/26 03:56:13;;;;;;;28.33;21.92;;;18.90;92.90;;;;;;5064522;28;20013;-77
2022/06/26 03:58:40;;;;;;;23.85;19.67;;;18.80;92.80;;;;;;5066025;28;20025;-76
2022/06/26 04:01:05;;;;;;;26.45;20.73;;;18.80;92.70;;;;;;5072725;28;20029;-76
2022/06/26 04:03:31;;;;;;;25.52;20.27;;;18.70;92.50;;;;;;5070912;28;20033;-77
2022/06/26 04:05:57;;;;;;;26.90;20.63;;;18.70;92.50;;;;;;5062882;28;20078;-76
2022/06/26 04:08:22;;;;;;;25.13;20.30;;;18.70;92.50;;;;;;5074037;28;20028;-78
2022/06/26 04:10:48;;;;;;;29.02;22.10;;;18.70;92.50;;;;;;5087304;28;20023;-79
2022/06/26 04:13:14;;;;;;;28.92;22.20;;;18.60;92.50;;;;;;5077594;28;20024;-77
2022/06/26 04:15:41;;;;;;;31.00;22.67;;;18.60;92.50;;;;;;5073321;28;20290;-76
2022/06/26 04:18:07;;;;;;;23.27;20.60;;;18.70;92.60;;;;;;5066966;28;20027;-76
2022/06/26 04:20:33;;;;;;;28.55;22.08;;;18.60;92.40;;;;;;5057102;28;20031;-77
2022/06/26 04:23:03;;;;;;;27.75;20.80;;;18.60;92.40;;;;;;5066413;28;20032;-78
2022/06/26 04:25:30;;;;;;;27.98;21.75;;;18.60;92.40;;;;;;5061699;28;20028;-77
2022/06/26 04:27:56;;;;;;;27.65;21.33;;;18.50;92.30;;;;;;5071099;28;20081;-78
2022/06/26 04:30:23;;;;;;;27.60;22.52;;;18.50;92.00;;;;;;5061049;28;20021;-76
2022/06/26 04:32:50;;;;;;;27.65;23.08;;;18.40;92.20;;;;;;5060925;28;20031;-76
2022/06/26 04:35:16;;;;;;;29.52;23.65;;;18.40;92.40;;;;;;5059815;28;20114;-77
2022/06/26 04:37:43;;;;;;;30.30;22.70;;;18.40;92.40;;;;;;5061163;28;20028;-77
2022/06/26 04:40:11;;;;;;;29.95;23.65;;;18.40;92.20;;;;;;5071339;28;20048;-77
2022/06/26 04:42:38;;;;;;;29.90;23.23;;;18.30;92.30;;;;;;5077313;28;20040;-77
2022/06/26 04:45:04;;;;;;;30.80;21.67;;;18.30;92.30;;;;;;5077573;28;20044;-78
2022/06/26 04:47:30;;;;;;;28.73;20.55;;;18.30;92.00;;;;;;5075768;28;20020;-78
2022/06/26 04:49:56;;;;;;;28.05;21.45;;;18.30;91.40;;;;;;5073908;28;20024;-78
2022/06/26 04:52:24;;;;;;;24.00;19.50;;;18.30;91.90;;;;;;5084296;28;20025;-78
2022/06/26 04:54:50;;;;;;;30.42;22.17;;;18.30;92.00;;;;;;5076239;28;20025;-76
2022/06/26 04:57:17;;;;;;;27.63;20.38;;;18.30;91.90;;;;;;5056924;28;20085;-76
2022/06/26 04:59:43;;;;;;;28.77;21.52;;;18.40;91.90;;;;;;5067246;28;20451;-77
2022/06/26 05:02:10;;;;;;;30.10;21.92;;;18.40;91.90;;;;;;5049671;28;20463;-77
2022/06/26 05:04:36;;;;;;;37.65;24.08;;;18.50;91.80;;;;;;5057023;28;20028;-77
2022/06/26 05:07:02;;;;;;;27.00;21.38;;;18.50;91.70;;;;;;5077250;28;20020;-77
2022/06/26 05:09:28;;;;;;;27.23;21.38;;;18.60;91.80;;;;;;5071943;28;20112;-77
2022/06/26 05:11:54;;;;;;;29.30;22.45;;;18.50;91.70;;;;;;5079505;28;20017;-77
2022/06/26 05:14:20;;;;;;;31.35;24.40;;;18.50;91.90;;;;;;5069076;28;20025;-78
2022/06/26 05:16:45;;;;;;;29.48;24.00;;;18.50;92.00;;;;;;5048591;28;20026;-77
2022/06/26 05:19:11;;;;;;;29.13;23.15;;;18.50;92.00;;;;;;5052435;28;20017;-78
2022/06/26 05:21:37;;;;;;;28.10;23.88;;;18.40;92.00;;;;;;5059696;28;20064;-78
2022/06/26 05:24:03;;;;;;;28.90;23.33;;;18.50;92.00;;;;;;5054421;28;20031;-77
2022/06/26 05:26:29;;;;;;;27.77;20.23;;;18.50;91.90;;;;;;5062288;28;20140;-76
2022/06/26 05:28:55;;;;;;;30.33;23.35;;;18.50;91.80;;;;;;5040762;28;20055;-77
2022/06/26 05:31:21;;;;;;;26.40;20.17;;;18.50;91.60;;;;;;5063725;28;20028;-77
2022/06/26 05:33:48;;;;;;;24.70;19.15;;;18.50;91.50;;;;;;5072618;28;20103;-77
2022/06/26 05:36:14;;;;;;;31.02;22.02;;;18.60;91.40;;;;;;5062307;28;20047;-77
2022/06/26 05:38:40;;;;;;;28.95;21.30;;;18.60;91.40;;;;;;5063608;28;20052;-76
2022/06/26 05:41:06;;;;;;;29.95;20.15;;;18.60;91.50;;;;;;5064570;28;20400;-77
2022/06/26 05:43:34;;;;;;;27.48;20.92;;;18.60;91.30;;;;;;5054930;28;20125;-77
2022/06/26 05:46:02;;;;;;;25.85;21.42;;;18.70;91.00;;;;;;5056015;28;20040;-77
2022/06/26 05:48:28;;;;;;;27.35;21.45;;;18.70;91.10;;;;;;5053951;28;20053;-78
2022/06/26 05:50:57;;;;;;;28.70;20.90;;;18.70;91.20;;;;;;5067143;28;20028;-78
2022/06/26 05:53:25;;;;;;;29.60;20.33;;;18.70;91.00;;;;;;5055329;28;20029;-78
2022/06/26 05:55:51;;;;;;;29.30;21.23;;;18.70;91.00;;;;;;5063859;28;20070;-77
2022/06/26 05:58:16;;;;;;;27.45;21.63;;;18.80;91.00;;;;;;5056926;28;20434;-77
2022/06/26 06:00:42;;;;;;;25.35;20.52;;;18.80;91.00;;;;;;5060612;28;20056;-77
2022/06/26 06:03:09;;;;;;;24.67;15.98;;;18.90;90.60;;;;;;5059084;28;20086;-77
2022/06/26 06:05:35;;;;;;;22.27;18.50;;;18.80;90.30;;;;;;5058787;28;20027;-77
2022/06/26 06:08:01;;;;;;;25.23;19.05;;;18.80;90.10;;;;;;5058644;28;20029;-76
2022/06/26 06:10:28;;;;;;;22.55;15.85;;;18.80;90.40;;;;;;5052955;28;20443;-76
2022/06/26 06:12:54;;;;;;;23.42;18.60;;;18.80;90.10;;;;;;5063745;28;20100;-77
2022/06/26 06:15:23;;;;;;;21.75;15.88;;;18.90;90.10;;;;;;5054296;28;20452;-78
2022/06/26 06:17:50;;;;;;;24.65;18.17;;;19.00;90.10;;;;;;5067074;28;20025;-77
2022/06/26 06:20:21;;;;;;;20.38;17.38;;;19.10;88.30;;;;;;5052308;28;20018;-77
2022/06/26 06:22:51;;;;;;;22.55;16.88;;;19.10;88.60;;;;;;5064011;28;20028;-77
2022/06/26 06:25:16;;;;;;;19.35;16.20;;;19.20;88.80;;;;;;5079610;28;20439;-77
2022/06/26 06:27:44;;;;;;;20.55;16.23;;;19.30;87.50;;;;;;5062181;28;20064;-77
2022/06/26 06:30:11;;;;;;;17.67;15.23;;;19.40;86.10;;;;;;5062116;28;20017;-77
2022/06/26 06:32:37;;;;;;;20.80;15.85;;;19.40;86.20;;;;;;5060344;28;20036;-78
2022/06/26 06:35:03;;;;;;;16.92;14.32;;;19.50;86.20;;;;;;5075743;28;20104;-77
2022/06/26 06:37:29;;;;;;;19.70;15.63;;;19.60;86.90;;;;;;5063085;28;20035;-76
2022/06/26 06:39:55;;;;;;;15.88;12.90;;;19.70;85.80;;;;;;5075033;28;20052;-77
2022/06/26 06:42:21;;;;;;;16.25;14.57;;;19.90;85.20;;;;;;5073972;28;20025;-77
2022/06/26 06:44:47;;;;;;;17.27;13.63;;;19.90;84.40;;;;;;5059736;28;20075;-77
2022/06/26 06:47:13;;;;;;;19.92;13.60;;;20.00;84.60;;;;;;5071490;28;20029;-77
2022/06/26 06:49:38;;;;;;;14.80;11.55;;;20.10;82.50;;;;;;5062303;28;20025;-79
2022/06/26 06:52:05;;;;;;;16.48;11.63;;;20.20;82.50;;;;;;5066298;28;20132;-78
2022/06/26 06:54:33;;;;;;;13.68;11.65;;;20.30;81.40;;;;;;5074316;28;20017;-78
2022/06/26 06:57:00;;;;;;;12.70;11.30;;;20.30;80.40;;;;;;5077891;28;20157;-79
2022/06/26 06:59:26;;;;;;;13.50;11.23;;;20.20;80.70;;;;;;5046738;28;20108;-78
2022/06/26 07:01:54;;;;;;;18.55;11.88;;;20.30;80.50;;;;;;5047533;28;20051;-79
2022/06/26 07:04:19;;;;;;;13.65;10.95;;;20.40;79.30;;;;;;5069875;28;20067;-79
2022/06/26 07:06:46;;;;;;;17.90;11.38;;;20.50;79.50;;;;;;5080235;28;20025;-78
2022/06/26 07:09:12;;;;;;;13.07;10.10;;;20.70;79.80;;;;;;5067704;28;20085;-77
2022/06/26 07:11:38;;;;;;;12.65;10.20;;;20.70;79.00;;;;;;5075068;28;20467;-77
2022/06/26 07:14:04;;;;;;;14.88;10.38;;;20.90;79.20;;;;;;5064259;28;20111;-77
2022/06/26 07:16:29;;;;;;;12.10;9.48;;;20.90;77.30;;;;;;5079698;28;20458;-77
2022/06/26 07:18:55;;;;;;;9.65;6.18;;;21.00;77.80;;;;;;5068404;28;20509;-77
2022/06/26 07:21:21;;;;;;;12.85;9.13;;;21.10;77.00;;;;;;5052868;28;20624;-77
2022/06/26 07:23:47;;;;;;;9.70;6.45;;;21.20;77.90;;;;;;5058394;28;20128;-79
2022/06/26 07:26:13;;;;;;;11.38;6.80;;;21.40;76.70;;;;;;5074774;28;20020;-79
2022/06/26 07:28:38;;;;;;;8.45;5.78;;;21.50;75.10;;;;;;5065347;28;20483;-78
2022/06/26 07:31:04;;;;;;;9.57;5.50;;;21.50;74.60;;;;;;5071331;28;20036;-77
2022/06/26 07:36:14;;;;;;;8.90;5.65;;;21.60;73.10;;;;;;5061239;28;20039;-77
2022/06/26 07:38:40;;;;;;;9.93;5.53;;;21.70;73.50;;;;;;5055107;28;20028;-77
2022/06/26 07:41:06;;;;;;;8.45;5.78;;;21.70;72.30;;;;;;5051349;28;20069;-77
2022/06/26 07:43:32;;;;;;;8.15;4.85;;;21.70;72.00;;;;;;5043177;28;20059;-76
2022/06/26 07:45:57;;;;;;;7.95;4.70;;;21.70;73.50;;;;;;5046530;28;20021;-78
2022/06/26 07:48:23;;;;;;;9.32;4.60;;;21.80;72.30;;;;;;5056235;28;20019;-78
2022/06/26 07:50:49;;;;;;;6.55;4.18;;;21.90;72.40;;;;;;5074877;28;20020;-79
2022/06/26 07:53:15;;;;;;;9.40;4.80;;;21.90;71.70;;;;;;5074628;28;20099;-77
2022/06/26 07:55:40;;;;;;;8.90;4.13;;;22.00;70.20;;;;;;5061187;28;20024;-77
2022/06/26 07:58:06;;;;;;;9.63;4.82;;;22.20;69.60;;;;;;5073108;28;20475;-78
2022/06/26 08:00:32;;;;;;;6.53;4.22;;;22.20;69.40;;;;;;5060888;28;20476;-77
2022/06/26 08:03:11;;;;;;;7.95;3.55;;;22.30;68.80;;;;;;5044629;28;20045;-79
2022/06/26 08:05:38;;;;;;;8.77;4.77;;;22.40;68.60;;;;;;5052781;28;20025;-78
2022/06/26 08:08:05;;;;;;;9.57;4.47;;;22.40;67.80;;;;;;5053781;28;20033;-80
2022/06/26 08:10:31;;;;;;;8.13;4.00;;;22.50;68.20;;;;;;5061788;28;20017;-78
2022/06/26 08:12:57;;;;;;;8.88;4.20;;;22.60;67.90;;;;;;5052141;28;20033;-79
2022/06/26 08:15:23;;;;;;;6.55;4.07;;;22.60;69.20;;;;;;5060890;28;20023;-78
2022/06/26 08:17:49;;;;;;;6.72;3.47;;;22.60;67.30;;;;;;5054254;28;20111;-78
2022/06/26 08:20:15;;;;;;;7.20;4.22;;;22.60;67.50;;;;;;5055691;28;20686;-79
2022/06/26 08:22:43;;;;;;;8.35;3.72;;;22.70;68.50;;;;;;5050336;28;20143;-78
2022/06/26 08:25:09;;;;;;;6.13;3.50;;;22.70;67.00;;;;;;5060557;28;20017;-77
2022/06/26 08:27:35;;;;;;;8.60;4.45;;;22.70;67.40;;;;;;5060107;28;20025;-79
2022/06/26 08:30:01;;;;;;;6.07;3.38;;;22.70;67.20;;;;;;5042538;28;20108;-78
2022/06/26 08:32:26;;;;;;;7.30;2.88;;;22.70;67.30;;;;;;5064829;28;20032;-78
2022/06/26 08:34:52;;;;;;;5.85;2.97;;;22.60;67.00;;;;;;5055526;28;20508;-79
2022/06/26 08:37:17;;;;;;;7.13;3.05;;;22.50;67.70;;;;;;5047010;28;20036;-78
2022/06/26 08:39:43;;;;;;;5.63;2.78;;;22.40;67.20;;;;;;5054041;28;20411;-78
2022/06/26 08:42:09;;;;;;;7.70;2.80;;;22.30;66.80;;;;;;5045990;28;20116;-79
2022/06/26 08:44:41;;;;;;;6.60;2.25;;;22.30;67.10;;;;;;5033504;28;20033;-79
2022/06/26 08:47:08;;;;;;;7.57;3.58;;;22.40;68.10;;;;;;5054751;28;20108;-78
2022/06/26 08:49:35;;;;;;;9.82;3.90;;;22.40;67.50;;;;;;5052561;28;20017;-79
2022/06/26 08:52:01;;;;;;;6.53;3.35;;;22.30;66.80;;;;;;5057476;28;20136;-78
2022/06/26 08:54:29;;;;;;;8.30;3.60;;;22.30;67.50;;;;;;5072059;28;20106;-79
2022/06/26 08:56:56;;;;;;;8.10;3.47;;;22.30;67.70;;;;;;5068508;28;20047;-79
2022/06/26 08:59:22;;;;;;;4.68;2.92;;;22.40;68.00;;;;;;5055909;28;20049;-80
2022/06/26 09:01:49;;;;;;;8.50;4.03;;;22.40;67.20;;;;;;5058573;28;20025;-79
2022/06/26 09:04:15;;;;;;;4.20;2.28;;;22.40;67.00;;;;;;5052126;28;20506;-79
2022/06/26 09:06:42;;;;;;;6.78;3.20;;;22.40;67.20;;;;;;5050436;28;20020;-79
2022/06/26 09:09:16;;;;;;;6.28;3.25;;;22.40;66.90;;;;;;5056268;28;20029;-77
2022/06/26 09:11:42;;;;;;;5.50;3.08;;;22.50;67.90;;;;;;5040633;28;20029;-78
2022/06/26 09:14:09;;;;;;;6.97;3.30;;;22.70;66.30;;;;;;5060156;28;20479;-78
2022/06/26 09:16:38;;;;;;;7.93;3.30;;;22.80;65.00;;;;;;5056560;28;20028;-79
2022/06/26 09:19:09;;;;;;;7.82;3.75;;;22.80;64.70;;;;;;5051249;28;20020;-78
2022/06/26 09:21:35;;;;;;;4.97;2.80;;;22.80;65.00;;;;;;5071412;28;20021;-79
2022/06/26 09:24:00;;;;;;;6.97;3.25;;;22.80;64.20;;;;;;5064411;28;20110;-78
2022/06/26 09:26:27;;;;;;;8.70;3.97;;;22.80;65.00;;;;;;5054034;28;20518;-78
2022/06/26 09:28:52;;;;;;;5.15;2.50;;;22.80;64.70;;;;;;5058580;28;20028;-77
2022/06/26 09:31:20;;;;;;;8.00;3.03;;;22.80;65.60;;;;;;5053554;28;20063;-77
2022/06/26 09:33:46;;;;;;;4.45;1.88;;;22.70;64.80;;;;;;5064440;28;20115;-79
2022/06/26 09:36:17;;;;;;;5.32;1.90;;;22.70;67.30;;;;;;5054888;28;20048;-77
2022/06/26 09:38:51;;;;;;;6.57;2.90;;;22.60;68.10;;;;;;5050982;28;20092;-78
2022/06/26 09:41:17;;;;;;;4.07;2.15;;;22.60;66.90;;;;;;5042942;28;20041;-73
2022/06/26 09:43:44;;;;;;;5.65;2.28;;;22.60;68.20;;;;;;5041381;28;20068;-73
2022/06/26 09:46:14;;;;;;;3.28;1.95;;;22.80;68.70;;;;;;5059437;28;20045;-72
2022/06/26 09:48:41;;;;;;;4.35;1.88;;;22.90;69.00;;;;;;5059687;28;20063;-72
2022/06/26 09:51:09;;;;;;;10.48;2.67;;;23.10;68.80;;;;;;5051606;28;20171;-75
2022/06/26 09:53:35;;;;;;;3.92;1.85;;;23.10;68.40;;;;;;5052234;28;20054;-72
2022/06/26 09:56:03;;;;;;;2.97;1.88;;;23.20;67.90;;;;;;5051060;28;20021;-71
2022/06/26 09:58:30;;;;;;;4.70;2.60;;;23.30;67.10;;;;;;5047565;28;20452;-71
2022/06/26 10:06:31;;;;;;;4.07;2.17;;;23.00;66.80;;;;;;5064055;28;20098;-72
2022/06/26 10:09:00;;;;;;;5.03;2.70;;;22.90;67.10;;;;;;5059094;28;20052;-72
2022/06/26 10:11:31;;;;;;;6.50;2.83;;;22.80;67.10;;;;;;5050269;28;20025;-72
2022/06/26 10:14:07;;;;;;;7.28;2.25;;;22.70;67.00;;;;;;5041098;28;20052;-72
2022/06/26 10:16:51;;;;;;;4.65;2.15;;;22.70;66.70;;;;;;5043060;28;20017;-72
2022/06/26 10:19:26;;;;;;;6.55;2.50;;;22.60;67.70;;;;;;5039787;28;20028;-72
2022/06/26 10:21:53;;;;;;;5.20;2.33;;;22.70;67.70;;;;;;5042512;28;20024;-73
2022/06/26 10:24:18;;;;;;;6.60;2.53;;;22.70;67.30;;;;;;5043254;28;20029;-72
2022/06/26 10:26:56;;;;;;;5.55;3.00;;;22.70;66.70;;;;;;5038976;28;20437;-72
2022/06/26 10:29:36;;;;;;;5.13;2.53;;;22.80;66.60;;;;;;5041010;28;20024;-72
2022/06/26 10:32:02;;;;;;;6.32;2.33;;;22.70;64.90;;;;;;5058204;28;20030;-72
2022/06/26 10:34:28;;;;;;;6.70;3.13;;;22.80;66.50;;;;;;5041788;28;20152;-72
2022/06/26 10:36:58;;;;;;;4.68;1.88;;;22.70;63.00;;;;;;5059623;28;20383;-72
2022/06/26 10:39:36;;;;;;;4.80;2.00;;;22.60;65.40;;;;;;5052182;28;20021;-71
2022/06/26 10:45:00;;;;;;;9.35;3.30;;;22.50;63.90;;;;;;5049183;28;20045;-71
2022/06/26 10:47:56;;;;;;;6.25;2.78;;;22.40;64.90;;;;;;5047609;28;20033;-71
2022/06/26 10:50:35;;;;;;;6.35;3.78;;;22.40;66.20;;;;;;5040268;28;20026;-71
2022/06/26 10:53:13;;;;;;;5.28;2.53;;;22.40;66.30;;;;;;5047548;28;20025;-72
2022/06/26 10:55:40;;;;;;;6.78;2.97;;;22.40;67.40;;;;;;5042620;28;20111;-73
2022/06/26 10:58:06;;;;;;;6.63;3.60;;;22.40;67.90;;;;;;5047093;28;20490;-73
2022/06/26 11:00:31;;;;;;;5.68;2.05;;;22.50;67.20;;;;;;5052543;28;20092;-72
2022/06/26 11:02:57;;;;;;;4.93;2.58;;;22.50;67.20;;;;;;5056767;28;20028;-72
2022/06/26 11:05:23;;;;;;;6.35;2.97;;;22.60;66.90;;;;;;5064179;28;20105;-72
2022/06/26 11:07:53;;;;;;;8.40;3.75;;;22.80;66.30;;;;;;5056887;28;20025;-73
2022/06/26 11:10:24;;;;;;;5.55;2.58;;;22.80;66.30;;;;;;5040669;28;20074;-72
2022/06/26 11:12:52;;;;;;;9.90;4.32;;;22.80;66.30;;;;;;5050976;28;20029;-72
2022/06/26 11:15:28;;;;;;;8.50;3.70;;;22.70;64.40;;;;;;5068903;28;20502;-72
2022/06/26 11:18:03;;;;;;;5.90;3.00;;;22.70;65.00;;;;;;5059430;28;20084;-72
2022/06/26 11:20:49;;;;;;;6.80;2.85;;;22.70;65.60;;;;;;5047379;28;20033;-73
2022/06/26 11:23:32;;;;;;;9.75;3.72;;;22.70;65.90;;;;;;5057088;28;20041;-72
2022/06/26 11:26:01;;;;;;;6.03;3.03;;;22.70;66.10;;;;;;5064594;28;20498;-72
2022/06/26 11:28:41;;;;;;;6.70;3.88;;;22.80;65.50;;;;;;5069183;28;20150;-72
2022/06/26 11:31:18;;;;;;;6.80;3.53;;;22.60;65.40;;;;;;5069714;28;20028;-72
2022/06/26 11:33:44;;;;;;;5.88;2.50;;;22.50;65.70;;;;;;5060938;28;20021;-72
2022/06/26 11:36:15;;;;;;;5.00;2.30;;;22.40;66.40;;;;;;5047179;28;20418;-71
2022/06/26 11:38:54;;;;;;;6.80;2.30;;;22.30;66.90;;;;;;5049236;28;20025;-72
2022/06/26 11:41:22;;;;;;;5.97;2.28;;;22.40;66.60;;;;;;5052947;28;20045;-71
2022/06/26 11:43:53;;;;;;;4.72;2.00;;;22.40;65.90;;;;;;5038946;28;20431;-71
2022/06/26 11:46:19;;;;;;;5.82;2.58;;;22.50;64.70;;;;;;5047958;28;20016;-71
2022/06/26 11:48:49;;;;;;;8.32;2.75;;;22.50;64.70;;;;;;5059412;28;20025;-71
2022/06/26 11:51:16;;;;;;;3.83;1.60;;;22.60;64.70;;;;;;5055945;28;20088;-71
2022/06/26 11:53:45;;;;;;;9.13;3.40;;;22.70;65.50;;;;;;5045860;28;20023;-70
2022/06/26 11:56:17;;;;;;;9.82;3.25;;;22.80;64.20;;;;;;5072075;28;20031;-71
2022/06/26 11:58:46;;;;;;;2.97;1.67;;;22.80;64.00;;;;;;5048999;28;20557;-70
2022/06/26 12:01:13;;;;;;;5.13;2.10;;;22.70;65.00;;;;;;5042158;28;20480;-71
2022/06/26 12:03:49;;;;;;;10.93;3.65;;;22.70;65.50;;;;;;5044308;28;20037;-71
2022/06/26 12:06:36;;;;;;;5.57;2.75;;;22.80;66.00;;;;;;5071009;28;20063;-71
2022/06/26 12:09:19;;;;;;;4.53;2.30;;;22.70;65.80;;;;;;5056212;28;20028;-72
2022/06/26 12:11:46;;;;;;;8.85;4.10;;;22.70;66.40;;;;;;5070363;28;20455;-70
2022/06/26 12:14:15;;;;;;;8.40;2.92;;;22.60;67.10;;;;;;5063415;28;20045;-70
2022/06/26 12:16:45;;;;;;;6.63;3.10;;;22.50;66.80;;;;;;5050070;28;20037;-71
2022/06/26 12:19:11;;;;;;;;;;;22.40;67.70;;;;;;5062961;28;20139;-70
2022/06/26 12:21:37;;;;;;;4.30;1.85;;;22.50;67.10;;;;;;5049996;28;20008;-71
2022/06/26 12:24:10;;;;;;;3.92;1.60;;;22.30;67.10;;;;;;5058145;28;20040;-71
2022/06/26 12:26:38;;;;;;;5.63;2.15;;;22.20;67.60;;;;;;5030589;28;20722;-71
2022/06/26 12:29:09;;;;;;;5.20;2.13;;;22.20;67.80;;;;;;5054674;28;20025;-71
2022/06/26 12:31:35;;;;;;;5.10;2.53;;;22.20;68.00;;;;;;5051268;28;20084;-72
2022/06/26 12:34:04;;;;;;;5.40;2.15;;;22.10;67.80;;;;;;5058214;28;20074;-72
2022/06/26 12:36:30;;;;;;;4.40;1.92;;;22.00;67.60;;;;;;5052700;28;20036;-73
2022/06/26 12:38:57;;;;;;;5.18;2.08;;;21.90;68.70;;;;;;5048904;28;20033;-74
2022/06/26 12:41:23;;;;;;;4.68;2.00;;;21.80;68.10;;;;;;5063761;28;20068;-73
2022/06/26 12:43:52;;;;;;;3.97;1.83;;;21.80;68.20;;;;;;5065149;28;20033;-71
2022/06/26 12:46:19;;;;;;;9.02;2.63;;;21.80;68.50;;;;;;5053270;28;20027;-71
2022/06/26 12:48:45;;;;;;;4.63;1.75;;;21.90;68.20;;;;;;5051905;28;20025;-71
2022/06/26 12:51:12;;;;;;;6.30;2.30;;;21.90;68.10;;;;;;5055945;28;20043;-71